Ride Results

National Capital Brookvale (29-09-2018)
Ride distance: 80.0 km

Outcomes - National Capital Brookvale (29-09-2018)
Division No. of Entries Retired / DNE Completed Withdrawn Ineligible V/O Percentage Completed
HW 8 - 6 - - 2 75.00%
MW 12 - 10 - 1 1 83.33%
LW 8 - 5 2 - 1 62.50%
JN 2 - 1 - - 1 50.00%
Totals 30 - 22 2 1 5 73.33%
Results - National Capital Brookvale (29-09-2018)
No. Rider Horse Place Time Leg Speeds Total
Km/Hr
H/R bpm
Heavyweight
18 Robert Catlin Avita 1 7:33:00 10.5, 10.6 10.60 35, 41, 47 (Avg:44)
8 Alan Lindsay Kintamani Silver Marksman 1 (BC) 7:33:00 11.1, 10.0 10.60 32, 38, 42 (Avg:40)
29 Ian Dreghorn Ausden Nile Prins 3 8:18:00 10.4, 8.9 9.64 42, 50, 53 (Avg:51)
10 Rhys Norman Nimwai 4 8:22:00 9.8, 9.2 9.56 36, 46, 48 (Avg:47)
16 Heidi Wade Poesie De Fadjurs Legacy 5 8:25:00 9.6, 9.3 9.50 32, 37, 43 (Avg:40)
25 Kirsty Carter Henley Farm Farhan 6 9:20:00 8.6, 8.4 8.57 38, 41, 52 (Avg:46)
12 Charles Gauci Charleville Cherokee Charm Heart Rate L2 0:00:00 10.1, 8.1 - 32, 41, 62 (Avg:51)
28 Marty Moran Dane Lame L2 0:00:00 9.0, 8.9 - 35, 39, 52 (Avg:45)
Middleweight
21 Jessica Drain-Shepheard Currowan Apollo 1 6:08:00 15.1, 11.4 13.04 40, 48, 51 (Avg:49)
4 Katrina Newitt Wybalena Lodge Prince Harry 1 (BC) 6:08:00 15.1, 11.4 13.04 44, 48, 50 (Avg:49)
15 Thomas Hermann Wasabi 3 6:57:00 12.2, 10.8 11.51 35, 44, 45 (Avg:44)
19 York Shepheard Currowan Starlite 4 7:13:00 11.3, 10.8 11.09 35, 43, 48 (Avg:45)
26 Erica Allan Waugoola Creek Onyx 5 7:28:00 12.1, 9.5 10.71 38, 45, 42 (Avg:43)
17 Clare Feary Equilo 6 7:33:00 10.5, 10.6 10.60 44, 43, 44 (Avg:43)
5 Rodney Curry Mountain Breeze Mingha 7 8:18:00 10.4, 8.9 9.64 28, 32, 41 (Avg:36)
30 Geraldine Stuart Kolahai Jailahn 8 8:51:00 9.8, 8.3 9.04 44, 47, 56 (Avg:51)
3 Andrew Mackinder Sundown Park Cariad 9 8:52:01 9.7, 8.4 9.02 30, 34, 43 (Avg:38)
27 Bev Turner Coco Chanel 10 8:54:00 9.0, 8.9 8.99 38, 40, 50 (Avg:45)
13 Imogen Carrey Charleville Commanche Red Heart Rate L2 0:00:00 10.1, 8.1 - 40, 51, 62 (Avg:56)
1 Sean Griffin Taku Under Novice Time L2 0:00:00 16.4, 13.4 - 35, 42, 36 (Avg:39)
Lightweight
22 Gertraud Norton Scarlet Oaks Amica 1 (BC) 5:25:00 16.4, 13.4 14.77 40, 46, 50 (Avg:48)
20 Jenny Shepheard Currowan Maximus 2 7:13:00 11.3, 10.8 11.09 36, 38, 42 (Avg:40)
2 Sue Todd Shakari Bear 3 7:28:00 12.1, 9.5 10.71 42, 42, 52 (Avg:47)
9 Courtney Chapman Littlebanks Crystal Wings 4 8:52:00 9.7, 8.4 9.02 34, 46, 48 (Avg:47)
23 Cheny Collins Valinor Park Sonnet 5 9:20:00 8.6, 8.4 8.57 40, 37, 52 (Avg:44)
11 Shelly Ison Marcon Elafi Lame L2 0:00:00 9.8, 9.2 - 36, 36, 41 (Avg:38)
24 Mary Hollingsworth Sandine Bugatti Withdrawn L1 0:00:00 - - 36, 52 (Avg:52)
7 Julie Hooper A'Landell Enigma Withdrawn L1 0:00:00 - - 36, 40 (Avg:40)
Junior
14 Levi Robinson Karumba Beamish 1 (BC) 7:36:00 10.5, 10.5 10.53 32, 39, 40 (Avg:39)
6 Madison Hooper Khalidah Tasneem Lame L1 0:00:00 10.2 - 26, 36 (Avg:36)